Weather observations for the past three days for
Pinal Airpark
Imperial (Metric)
Date Time (mst) Wind (mph) Vis. (mi.) Weather Sky Cond. Temperature (ºF) Relative Humidity Wind Chill (°F) Heat Index (°F) Pressure Precipitation (in)
Air Dwpt 6 hour altimeter (in) sea level (mb) 1 hr 3 hr 6 hr
Max. Min.
07 12:55 Calm 10.00 Fair CLR 87.8 24.8 10% 84 29.9 0.0
07 12:35 N 8 10.00 Fair CLR 87.8 26.6 11% 84 29.91 0.0
07 12:15 W 7 10.00 Fair CLR 86 26.6 11% 83 29.92 0.0
07 11:55 Vrbl 6 10.00 Fair CLR 86 28.4 12% 83 29.93 0.0
07 11:35 Calm 10.00 Fair CLR 84.2 32 15% 81 29.94 0.0
07 11:15 Calm 10.00 Fair CLR 82.4 32 16% 80 29.95 0.0
07 10:55 Calm 10.00 Fair CLR 80.6 32 17% 79 29.96 0.0
07 10:35 Calm 10.00 Fair CLR 78.8 32 18% 78 29.96 0.0
07 10:15 Calm 10.00 Fair CLR 77 32 19% 77 29.96 0.0
07 09:55 Calm 10.00 Fair CLR 77 32 19% 77 29.97 0.0
07 09:35 S 5 10.00 Fair CLR 75.2 32 21% 76 29.97 0.0
07 09:15 S 6 10.00 Fair CLR 73.4 33.8 23% 29.97 0.0
07 08:55 SE 5 10.00 Fair CLR 71.6 35.6 27% 29.98 0.0
07 08:35 Vrbl 5 10.00 Fair CLR 69.8 37.4 31% 29.98 0.0
07 08:15 SE 6 10.00 Fair CLR 68 37.4 33% 29.98 0.0
07 07:55 SE 6 10.00 Fair CLR 66.2 37.4 35% 29.99 0.0
07 07:35 SE 7 10.00 Fair CLR 64.4 39.2 40% 29.99 0.0
07 07:15 SE 6 10.00 Fair CLR 60.8 39.2 45% 29.99 0.0
07 06:55 S 5 10.00 Fair CLR 57.2 37.4 48% 29.99 0.0
07 06:35 S 3 10.00 Fair CLR 55.4 37.4 51% 29.98 0.0
07 06:15 Calm 10.00 Fair CLR 55.4 37.4 51% 29.98 0.0
07 05:55 SE 3 10.00 Fair CLR 55.4 37.4 51% 29.97 0.0
07 05:35 SE 8 7.00 Fair CLR 53.6 37.4 54% 29.97 0.0
07 05:15 SE 6 10.00 Fair CLR 55.4 37.4 51% 29.97 0.0
07 04:55 SE 6 10.00 Partly Cloudy FEW041 SCT050 55.4 37.4 51% 29.97 0.0
07 04:35 E 5 10.00 A Few Clouds FEW044 55.4 37.4 51% 29.97 0.0
07 04:15 E 3 10.00 Partly Cloudy FEW044 SCT050 53.6 37.4 54% 29.97 0.0
07 03:55 Calm 10.00 Mostly Cloudy SCT044 BKN050 53.6 35.6 51% 29.97 0.0
07 03:35 Calm 10.00 Mostly Cloudy FEW035 BKN042 BKN047 53.6 33.8 47% 29.97 0.0
07 03:15 W 3 10.00 Mostly Cloudy SCT030 BKN038 BKN045 53.6 33.8 47% 29.98 0.0
07 02:55 Calm 10.00 Mostly Cloudy BKN032 BKN043 55.4 32 41% 29.98 0.0
07 02:35 Calm 10.00 Mostly Cloudy SCT034 BKN043 55.4 33.8 44% 29.98 0.0
07 02:15 Calm 10.00 Partly Cloudy FEW034 SCT040 55.4 33.8 44% 29.98 0.0
07 01:55 Calm 10.00 Partly Cloudy FEW033 SCT041 59 33.8 39% 29.98 0.0
07 01:35 Calm 10.00 Partly Cloudy SCT037 SCT043 55.4 32 41% 29.98 0.0
07 01:15 Calm 10.00 Partly Cloudy FEW035 SCT044 55.4 32 41% 29.99 0.0
07 00:55 Calm 10.00 Partly Cloudy FEW030 SCT037 SCT046 57.2 32 39% 29.99 0.0
07 00:35 Calm 10.00 Mostly Cloudy SCT036 BKN043 57.2 32 39% 29.99 0.0
07 00:15 Calm 10.00 Partly Cloudy FEW031 SCT041 59 32 36% 29.99 0.0
06 23:55 Calm 10.00 A Few Clouds FEW030 FEW042 59 32 36% 29.99 0.0
06 23:35 Calm 10.00 A Few Clouds FEW040 59 30.2 34% 29.99 0.0
06 23:15 Calm 10.00 A Few Clouds FEW042 60.8 32 34% 29.99 0.0
06 22:55 Calm 10.00 Fair CLR 64.4 30.2 28% 29.99 0.0
06 22:35 Calm 10.00 A Few Clouds FEW040 FEW049 64.4 30.2 28% 29.99 0.0
06 22:15 Calm 10.00 Fair CLR 66.2 30.2 26% 29.99 0.0
06 21:55 Calm 10.00 Fair CLR 66.2 28.4 24% 29.98 0.0
06 21:35 NW 5 10.00 A Few Clouds FEW046 68 28.4 23% 29.98 0.0
06 21:15 Calm 10.00 A Few Clouds FEW045 66.2 30.2 26% 29.98 0.0
06 20:55 W 5 10.00 A Few Clouds FEW046 68 30.2 24% 29.97 0.0
06 20:35 W 6 10.00 A Few Clouds FEW031 FEW041 69.8 28.4 21% 29.96 0.0
06 20:15 W 3 8.00 Partly Cloudy FEW021 SCT033 SCT040 71.6 28.4 20% 29.96 0.0
06 19:55 NW 7 10.00 Fair CLR 71.6 26.6 19% 29.95 0.0
06 19:35 NW 6 10.00 Fair CLR 73.4 28.4 19% 29.95 0.0
06 19:15 NW 5 10.00 Fair CLR 75.2 26.6 16% 76 29.94 0.0
06 18:55 W 6 10.00 Fair CLR 77 24.8 14% 76 29.94 0.0
06 18:35 W 6 10.00 Fair CLR 78.8 23 12% 77 29.94 0.0
06 18:15 W 8 10.00 Fair CLR 78.8 23 12% 77 29.94 0.0
06 17:55 W 7 10.00 Fair CLR 78.8 24.8 13% 77 29.94 0.0
06 17:35 Vrbl 7 10.00 Fair CLR 80.6 24.8 13% 79 29.94 0.0
06 17:15 N 6 5.00 Fair with Haze CLR 80.6 24.8 13% 79 29.94 0.0
06 16:55 W 7 G 14 10.00 Fair CLR 80.6 24.8 13% 79 29.94 0.0
06 16:35 Vrbl 6 10.00 Fair CLR 80.6 26.6 14% 79 29.94 0.0
06 16:15 Calm 10.00 Fair CLR 80.6 26.6 14% 79 29.94 0.0
06 15:55 W 10 10.00 Fair CLR 80.6 28.4 15% 79 29.95 0.0
06 15:35 Calm 10.00 Fair CLR 80.6 28.4 15% 79 29.95 0.0
06 15:15 Vrbl 7 G 13 9.00 Fair CLR 80.6 28.4 15% 79 29.96 0.0
06 14:55 N 8 10.00 Fair CLR 80.6 28.4 15% 79 29.96 0.0
06 14:35 Vrbl 5 10.00 Fair CLR 78.8 30.2 17% 78 29.97 0.0
06 14:15 W 10 2.00 Fair with Haze CLR 78.8 32 18% 78 29.98 0.0
06 13:55 Vrbl 3 10.00 Fair CLR 78.8 32 18% 78 29.99 0.0
06 13:35 Vrbl 6 10.00 Fair CLR 78.8 30.2 17% 78 29.99 0.0
06 13:10 Calm 10.00 Fair CLR 77 28.4 17% 77 30 0.0
06 12:55 N 12 8.00 Unknown Precip CLR 77 30.2 18% 77 30 0.0
06 12:35 Vrbl 5 G 13 5.00 Fair with Haze CLR 77 32 19% 77 30.01 0.0
06 12:15 N 8 10.00 Fair CLR 75.2 32 21% 76 30.02 0.0
06 11:55 Vrbl 5 G 13 10.00 Fair CLR 75.2 33.8 22% 76 30.02 0.0
06 11:35 Calm 10.00 Fair CLR 73.4 32 22% 30.03 0.0
06 11:15 Vrbl 6 10.00 Fair CLR 73.4 33.8 23% 30.04 0.0
06 10:55 W 6 10.00 Fair CLR 71.6 35.6 27% 30.04 0.0
06 10:35 Vrbl 5 10.00 Fair CLR 71.6 37.4 29% 30.04 0.0
06 10:15 N 8 9.00 Fair CLR 69.8 37.4 31% 30.04 0.0
06 09:55 N 8 10.00 Fair CLR 69.8 37.4 31% 30.04 0.0
06 09:35 Calm 10.00 Fair CLR 68 37.4 33% 30.04 0.0
06 09:15 Calm 10.00 Fair CLR 66.2 41 40% 30.04 0.0
06 08:55 N 6 10.00 Fair CLR 64.4 41 43% 30.04 0.0
06 08:35 Calm 10.00 Fair CLR 62.6 41 45% 30.04 0.0
06 08:15 Calm 10.00 Fair CLR 62.6 44.6 52% 30.04 0.0
06 07:55 Calm 10.00 Fair CLR 59 46.4 63% 30.03 0.0
06 07:35 S 3 10.00 Fair CLR 57.2 46.4 67% 30.03 0.0
06 06:55 Calm 10.00 Fair CLR 55.4 46.4 72% 30.03 0.0
06 06:35 Calm 10.00 Fair CLR 53.6 46.4 77% 30.02 0.0
06 06:15 Calm 10.00 Fair CLR 50 46.4 88% 30.02 0.0
06 05:55 Calm 10.00 Fair CLR 48.2 44.6 87% 30.01 0.0
06 05:35 Calm 10.00 Fair CLR 51.8 46.4 82% 30.01 0.0
06 05:15 Calm 10.00 Fair CLR 53.6 46.4 77% 30 0.0
06 04:55 Vrbl 3 10.00 A Few Clouds FEW065 53.6 46.4 77% 30 0.0
06 04:35 SE 6 10.00 Partly Cloudy SCT065 53.6 46.4 77% 29.99 0.0
06 04:15 SE 5 10.00 Partly Cloudy SCT060 55.4 46.4 72% 29.99 0.0
06 03:55 E 6 10.00 Partly Cloudy SCT065 53.6 44.6 72% 29.99 0.0
06 03:30 E 6 10.00 Partly Cloudy FEW060 SCT070 55.4 44.6 67% 29.98 0.0
06 03:15 E 5 10.00 A Few Clouds FEW038 FEW055 55.4 44.6 67% 29.98 0.0
06 02:55 Calm 10.00 Fair CLR 55.4 42.8 63% 29.97 0.0
06 02:35 Calm 10.00 A Few Clouds FEW060 FEW070 55.4 44.6 67% 29.97 0.0
06 02:15 SE 3 10.00 A Few Clouds FEW060 FEW070 57.2 42.8 59% 29.97 0.0
06 01:55 SE 5 10.00 A Few Clouds FEW055 57.2 44.6 63% 29.97 0.0
06 01:35 E 6 10.00 Partly Cloudy SCT055 57.2 44.6 63% 29.97 0.0
06 01:15 SW 5 10.00 Partly Cloudy FEW045 SCT050 55.4 41 59% 29.97 0.0
06 00:55 SW 6 10.00 Mostly Cloudy FEW040 BKN049 55.4 41 59% 29.97 0.0
06 00:35 W 6 10.00 Mostly Cloudy SCT043 BKN050 BKN075 57.2 39.2 51% 29.97 0.0
06 00:15 W 6 10.00 Mostly Cloudy FEW042 SCT047 BKN055 59 37.4 45% 29.97 0.0
05 23:55 W 5 10.00 Mostly Cloudy FEW029 SCT040 BKN060 59 37.4 45% 29.97 0.0
05 23:35 SW 3 10.00 Mostly Cloudy FEW029 SCT035 BKN045 59 37.4 45% 29.97 0.0
05 23:15 W 6 10.00 Mostly Cloudy FEW033 SCT044 BKN055 59 37.4 45% 29.97 0.0
05 22:55 W 5 10.00 Mostly Cloudy FEW031 SCT048 BKN060 62.6 37.4 39% 29.97 0.0
05 22:35 W 6 10.00 Mostly Cloudy FEW037 FEW060 BKN075 62.6 37.4 39% 29.96 0.0
05 22:15 W 5 10.00 Mostly Cloudy FEW045 SCT060 BKN070 62.6 37.4 39% 29.96 0.0
05 21:55 W 5 10.00 Overcast SCT044 SCT055 OVC090 64.4 37.4 37% 29.95 0.0
05 21:35 NW 7 10.00 Overcast SCT070 BKN075 OVC090 66.2 35.6 32% 29.94 0.0
05 21:15 NW 7 10.00 Overcast BKN070 OVC080 68 35.6 30% 29.94 0.0
05 20:55 NW 6 10.00 Overcast BKN070 OVC085 68 35.6 30% 29.93 0.0
05 20:35 W 8 10.00 Overcast BKN070 BKN085 OVC100 66.2 37.4 35% 29.92 0.0
05 20:15 NW 6 G 12 10.00 Mostly Cloudy FEW070 FEW085 BKN110 68 35.6 30% 29.91 0.0
05 19:55 NW 7 10.00 Mostly Cloudy FEW041 SCT090 BKN110 69.8 35.6 29% 29.89 0.0
05 19:35 NW 7 10.00 Mostly Cloudy SCT090 BKN110 69.8 35.6 29% 29.88 0.0
05 19:15 Vrbl 3 10.00 Mostly Cloudy BKN085 BKN110 71.6 37.4 29% 29.87 0.0
05 18:55 W 5 10.00 Mostly Cloudy BKN085 BKN120 71.6 37.4 29% 29.86 0.0
05 18:35 W 9 10.00 Partly Cloudy SCT085 71.6 37.4 29% 29.86 0.0
05 18:15 SW 12 10.00 Partly Cloudy SCT085 73.4 37.4 27% 29.85 0.0
05 17:55 SW 9 G 16 10.00 Fair CLR 73.4 37.4 27% 29.85 0.0
05 17:35 SW 16 G 24 10.00 Fair CLR 75.2 35.6 24% 76 29.84 0.0
05 17:15 SW 13 G 23 10.00 Partly Cloudy SCT085 75.2 35.6 24% 76 29.84 0.0
05 16:55 SW 18 10.00 Partly Cloudy SCT085 SCT100 77 35.6 22% 77 29.84 0.0
05 16:35 W 9 G 25 10.00 A Few Clouds FEW090 75.2 37.4 25% 77 29.83 0.0
05 16:15 SW 14 G 25 9.00 A Few Clouds FEW080 FEW100 77 37.4 24% 77 29.83 0.0
05 15:50 W 13 G 25 10.00 Mostly Cloudy BKN075 BKN095 77 39.2 26% 77 29.83 0.0
05 15:35 SW 9 10.00 Overcast BKN075 OVC095 75.2 41 29% 77 29.84 0.0
05 15:15 SW 16 10.00 Mostly Cloudy SCT075 BKN090 75.2 39.2 27% 77 29.85 0.0
05 14:55 S 12 G 22 10.00 Mostly Cloudy SCT080 BKN095 77 39.2 26% 77 29.85 0.0
05 14:35 SW 15 G 26 10.00 Partly Cloudy SCT080 75.2 37.4 25% 77 29.86 0.0
05 14:15 SW 20 G 25 10.00 Partly Cloudy SCT080 75.2 39.2 27% 77 29.87 0.0
05 13:55 SW 20 10.00 A Few Clouds FEW080 FEW090 75.2 41 29% 77 29.87 0.0
05 13:35 SW 15 G 25 10.00 Partly Cloudy SCT075 SCT090 75.2 41 29% 77 29.87 0.0
05 13:15 SW 15 G 26 10.00 NULL NULL 75.2 39.2 27% 77 29.88 0.0
05 12:55 SW 16 G 25 10.00 NULL NULL 73.4 42.8 33% 29.88 0.0
05 12:35 SW 8 10.00 NULL NULL 71.6 46.4 41% 29.89 0.0
05 12:15 SW 10 G 17 10.00 NULL NULL 71.6 46.4 41% 29.9 0.0
05 11:55 SW 5 G 14 10.00 NULL NULL 71.6 48.2 44% 29.9 0.0
05 11:35 Calm 10.00 NULL NULL 69.8 50 50% 29.91 0.0
05 11:15 SW 8 G 14 10.00 NULL NULL 69.8 50 50% 29.92 0.0
05 10:55 Vrbl 6 10.00 NULL NULL 68 51.8 56% 29.92 0.0
05 10:35 Vrbl 5 G 13 10.00 NULL NULL 68 51.8 56% 29.92 0.0
05 10:15 SW 7 10.00 NULL NULL 66.2 51.8 60% 29.93 0.0
05 09:55 Vrbl 6 10.00 NULL NULL 66.2 53.6 64% 29.92 0.0
05 09:35 Calm 10.00 NULL NULL 64.4 53.6 68% 29.93 0.0
05 09:15 Calm 10.00 NULL NULL 64.4 55.4 73% 29.93 0.0
05 08:55 Calm 10.00 NULL NULL 62.6 57.2 83% 29.92 0.0
05 08:35 Calm 10.00 Overcast SCT042 SCT050 OVC065 62.6 57.2 83% 29.92 0.0
05 08:15 SW 3 10.00 Overcast OVC042 62.6 59 88% 29.92 0.0
05 07:55 Calm 10.00 Overcast FEW008 BKN044 OVC065 62.6 59 88% 29.92 0.0
05 07:35 Calm 10.00 Overcast BKN047 OVC065 60.8 59 94% 29.91 0.0
05 07:15 Calm 10.00 Overcast BKN048 OVC055 60.8 60.8 100% 29.91 0.0
05 06:55 Calm 10.00 Overcast OVC050 60.8 59 94% 29.91 0.0
05 06:35 Calm 10.00 Mostly Cloudy SCT050 BKN060 60.8 59 94% 29.91 0.0
05 06:15 Calm 10.00 Overcast SCT050 OVC065 60.8 59 94% 29.9 0.0
05 05:55 S 3 10.00 Overcast SCT050 OVC060 60.8 59 94% 29.89 0.0
05 05:35 SE 5 10.00 Overcast FEW050 OVC060 60.8 59 94% 29.88 0.0
05 05:15 E 5 10.00 Overcast OVC060 60.8 59 94% 29.88 0.0
05 04:55 SE 5 10.00 Overcast BKN055 OVC065 60.8 59 94% 29.88 0.0
05 04:35 SE 3 10.00 Unknown Precip OVC060 60.8 59 94% 29.88 0.0
05 04:15 E 8 10.00 Overcast FEW031 OVC060 60.8 59 94% 29.88 0.0
05 03:55 SE 5 10.00 Overcast OVC060 60.8 59 94% 29.89 0.0
05 03:35 Calm 10.00 Overcast FEW032 OVC060 60.8 59 94% 29.89 0.0
05 03:15 Calm 10.00 Overcast SCT033 SCT046 OVC060 59 59 100% 29.89 0.0
05 02:55 W 6 4.00 Light Rain Fog/Mist FEW007 SCT034 BKN048 60.8 59 94% 29.92 0.0 0.04
05 02:35 SE 9 7.00 Light Rain FEW036 SCT048 OVC060 60.8 59 94% 29.91 0.0
05 02:15 SE 10 10.00 Light Rain FEW040 SCT047 BKN060 60.8 59 94% 29.92 0.0
05 01:55 SE 12 10.00 Light Rain FEW047 SCT060 OVC075 60.8 59 94% 29.91 0.0 0.01
05 01:35 SE 14 9.00 Light Rain FEW041 SCT060 OVC075 60.8 59 94% 29.92 0.0
05 01:15 SE 13 10.00 Light Rain NULL 60.8 59 94% 29.94 0.0
05 00:55 SE 13 5.00 Light Rain Fog/Mist NULL 60.8 59 94% 29.94 0.0 0.04
05 00:35 SE 10 7.00 Light Rain NULL 60.8 57.2 88% 29.96 0.0
05 00:15 SE 8 9.00 Light Rain SCT060 OVC070 59 57.2 94% 29.96 0.0
04 23:55 SE 12 10.00 Light Rain FEW050 SCT060 OVC075 59 57.2 94% 29.95 0.0 0.02
04 23:35 SE 8 7.00 Light Rain NULL 60.8 57.2 88% 29.97 0.0
04 23:15 SE 5 9.00 Light Rain NULL 59 55.4 88% 29.98 0.0
04 22:55 SE 7 9.00 Light Rain NULL 59 57.2 94% 29.98 0.0 0.01
04 22:35 SE 7 9.00 Light Rain FEW043 SCT050 BKN060 60.8 55.4 83% 29.98 0.0
04 22:15 SE 7 10.00 Light Rain FEW050 BKN060 OVC075 60.8 53.6 77% 29.97 0.0
04 21:55 SE 6 10.00 Overcast SCT065 BKN075 OVC100 60.8 53.6 77% 29.97 0.0 0.01
04 21:15 S 5 10.00 Light Rain FEW033 SCT050 BKN060 60.8 51.8 72% 29.97 0.0
04 20:50 SE 8 10.00 Light Rain FEW049 BKN065 OVC075 62.6 50 64% 29.97 0.0
04 20:35 SE 8 10.00 Overcast FEW039 FEW050 OVC070 62.6 50 64% 29.95 0.0
04 20:15 SE 9 10.00 Light Rain FEW040 SCT055 BKN070 62.6 50 64% 29.95 0.0
04 19:55 SE 5 10.00 Light Rain FEW060 BKN070 OVC110 62.6 50 64% 29.96 0.0
04 19:35 SE 8 G 14 10.00 Overcast BKN065 OVC075 64.4 50 60% 29.94 0.0
04 19:15 SE 12 10.00 Mostly Cloudy FEW065 SCT075 BKN095 64.4 48.2 56% 29.93 0.0
04 18:55 SE 9 10.00 Partly Cloudy FEW060 SCT100 64.4 50 60% 29.93 0.0
04 18:35 E 12 9.00 Light Rain BKN065 BKN090 66.2 51.8 60% 29.94 0.0
04 18:15 S 13 G 21 10.00 Light Rain FEW050 BKN070 OVC095 69.8 42.8 38% 29.95 0.0
04 17:55 S 10 G 17 10.00 Overcast OVC095 71.6 39.2 31% 29.92 0.0
04 17:35 S 10 G 17 10.00 Overcast OVC085 71.6 42.8 36% 29.92 0.0
04 17:15 S 7 10.00 Overcast OVC085 71.6 42.8 36% 29.93 0.0
04 16:55 S 9 10.00 Partly Cloudy SCT090 73.4 42.8 33% 29.92 0.0
04 16:35 S 8 10.00 Fair CLR 73.4 42.8 33% 29.91 0.0
04 16:10 S 6 9.00 Light Rain CLR 73.4 46.4 38% 29.91 0.0
04 15:55 S 12 G 21 10.00 Light Rain CLR 75.2 42.8 31% 77 29.92 0.0
04 15:35 SW 9 G 20 10.00 A Few Clouds FEW060 77 37.4 24% 77 29.93 0.0
04 15:15 SW 16 7.00 Fair CLR 78.8 35.6 21% 78 29.93 0.0
04 14:55 W 13 G 21 10.00 Fair CLR 78.8 32 18% 78 29.93 0.0
04 14:35 W 13 8.00 Fair CLR 78.8 33.8 20% 78 29.92 0.0
04 14:15 W 14 G 20 9.00 Fair CLR 80.6 32 17% 79 29.93 0.0
04 13:50 W 14 9.00 Fair CLR 80.6 28.4 15% 79 29.93 0.0
04 13:35 W 10 10.00 Fair CLR 80.6 28.4 15% 79 29.93 0.0
Date Time (mst) Wind (mph) Vis. (mi.) Weather Sky Cond. Air Dwpt Max. Min. Relative Humidity Wind Chill (°F) Heat Index (°F) altimeter (in) sea level (mb) 1 hr 3 hr 6 hr
6 hour
Temperature (ºF) Pressure Precipitation (in)